createdAt,value
2018-11-22T00:01:33.414Z,6.20
2018-11-22T00:04:03.849Z,6.20
2018-11-22T00:06:34.004Z,6.30
2018-11-22T00:09:03.939Z,6.30
2018-11-22T00:11:34.395Z,6.30
2018-11-22T00:14:04.920Z,6.30
2018-11-22T00:16:35.104Z,6.30
2018-11-22T00:19:05.754Z,6.30
2018-11-22T00:21:36.119Z,6.30
2018-11-22T00:24:06.419Z,6.30
2018-11-22T00:26:36.735Z,6.30
2018-11-22T00:29:06.975Z,6.30
2018-11-22T00:31:36.435Z,6.30
2018-11-22T00:34:07.579Z,6.30
2018-11-22T00:36:38.136Z,6.30
2018-11-22T00:39:11.375Z,6.30
2018-11-22T00:41:40.779Z,6.30
2018-11-22T00:44:10.875Z,6.30
2018-11-22T00:46:41.370Z,6.30
2018-11-22T00:49:11.584Z,6.30
2018-11-22T00:51:42.384Z,6.40
2018-11-22T00:54:12.639Z,6.30
2018-11-22T00:56:42.984Z,6.30
2018-11-22T00:59:13.409Z,6.30
2018-11-22T01:01:43.645Z,6.30
2018-11-22T01:04:14.059Z,6.30
2018-11-22T01:06:44.464Z,6.30
2018-11-22T01:09:15.694Z,6.40
2018-11-22T01:11:46.055Z,6.40
2018-11-22T01:14:16.644Z,6.30
2018-11-22T01:16:46.845Z,6.30
2018-11-22T01:19:16.959Z,6.20
2018-11-22T01:21:47.724Z,6.20
2018-11-22T01:24:18.171Z,6.20
2018-11-22T01:26:48.030Z,6.10
2018-11-22T01:29:17.382Z,6.10
2018-11-22T01:31:47.949Z,6.20
2018-11-22T01:34:18.704Z,6.20
2018-11-22T01:36:48.935Z,6.20
2018-11-22T01:39:19.600Z,6.20
2018-11-22T01:41:50.694Z,6.20
2018-11-22T01:44:20.820Z,6.20
2018-11-22T01:46:51.104Z,6.20
2018-11-22T01:49:21.229Z,6.20
2018-11-22T01:51:51.485Z,6.10
2018-11-22T01:54:21.554Z,6.10
2018-11-22T01:56:51.005Z,6.10
2018-11-22T01:59:21.440Z,6.10
2018-11-22T02:01:52.010Z,6.10
2018-11-22T02:04:21.712Z,6.10
2018-11-22T02:06:52.223Z,6.10
2018-11-22T02:09:22.261Z,6.10
2018-11-22T02:11:52.230Z,6.10
2018-11-22T02:14:22.500Z,6.10
2018-11-22T02:16:52.609Z,6.20
2018-11-22T02:19:22.264Z,6.10
2018-11-22T02:21:52.318Z,6.10
2018-11-22T02:24:22.444Z,6.10
2018-11-22T02:26:52.614Z,6.20
2018-11-22T02:29:23.574Z,6.10
2018-11-22T02:31:53.585Z,6.00
2018-11-22T02:34:23.405Z,6.10
2018-11-22T02:36:53.805Z,6.10
2018-11-22T02:39:23.558Z,6.10
2018-11-22T02:41:53.814Z,6.10
2018-11-22T02:44:24.130Z,6.00
2018-11-22T02:46:53.820Z,6.00
2018-11-22T02:49:24.275Z,6.00
2018-11-22T02:51:54.179Z,6.00
2018-11-22T02:54:25.075Z,6.10
2018-11-22T02:56:55.304Z,6.10
2018-11-22T02:59:25.301Z,6.10
2018-11-22T03:01:55.870Z,6.20
2018-11-22T03:04:26.487Z,6.20
2018-11-22T03:06:56.904Z,6.20
2018-11-22T03:09:27.470Z,6.20
2018-11-22T03:11:56.870Z,6.20
2018-11-22T03:14:26.944Z,6.20
2018-11-22T03:16:57.436Z,6.20
2018-11-22T03:19:27.643Z,6.20
2018-11-22T03:21:58.185Z,6.20
2018-11-22T03:24:28.660Z,6.30
2018-11-22T03:26:58.439Z,6.30
2018-11-22T03:29:28.805Z,6.20
2018-11-22T03:31:58.880Z,6.20
2018-11-22T03:34:28.986Z,6.20
2018-11-22T03:36:59.110Z,6.20
2018-11-22T03:39:29.790Z,6.30
2018-11-22T03:42:00.450Z,6.30
2018-11-22T03:44:30.911Z,6.30
2018-11-22T03:47:00.691Z,6.30
2018-11-22T03:49:31.291Z,6.30
2018-11-22T03:52:01.500Z,6.20
2018-11-22T03:54:31.300Z,6.20
2018-11-22T03:57:01.780Z,6.30
2018-11-22T03:59:32.394Z,6.30
2018-11-22T04:02:03.101Z,6.30
2018-11-22T04:04:33.559Z,6.30
2018-11-22T04:07:04.061Z,6.30
2018-11-22T04:09:34.400Z,6.30
2018-11-22T04:12:04.710Z,6.30
2018-11-22T04:14:38.025Z,6.30
2018-11-22T04:17:08.160Z,6.30
2018-11-22T04:19:37.867Z,6.30
2018-11-22T04:22:08.465Z,6.30
2018-11-22T04:24:38.601Z,6.30
2018-11-22T04:27:08.696Z,6.30
2018-11-22T04:29:38.937Z,6.40
2018-11-22T04:32:09.455Z,6.30
2018-11-22T04:34:39.615Z,6.30
2018-11-22T04:37:10.256Z,6.30
2018-11-22T04:39:40.720Z,6.30
2018-11-22T04:42:11.065Z,6.30
2018-11-22T04:44:41.621Z,6.40
2018-11-22T04:47:11.945Z,6.40
2018-11-22T04:49:42.535Z,6.30
2018-11-22T04:52:12.280Z,6.30
2018-11-22T04:54:41.951Z,6.30
2018-11-22T04:57:12.110Z,6.30
2018-11-22T04:59:42.172Z,6.30
2018-11-22T05:02:12.835Z,6.30
2018-11-22T05:04:43.460Z,6.30
2018-11-22T05:07:13.338Z,6.30
2018-11-22T05:09:42.921Z,6.30
2018-11-22T05:12:13.415Z,6.30
2018-11-22T05:14:44.081Z,6.30
2018-11-22T05:17:14.585Z,6.30
2018-11-22T05:19:44.550Z,6.40
2018-11-22T05:22:15.055Z,6.40
2018-11-22T05:24:45.335Z,6.40
2018-11-22T05:27:15.658Z,6.30
2018-11-22T05:29:46.150Z,6.30
2018-11-22T05:32:16.031Z,6.30
2018-11-22T05:34:46.505Z,6.30
2018-11-22T05:37:17.190Z,6.30
2018-11-22T05:39:47.965Z,6.30
2018-11-22T05:42:18.989Z,6.30
2018-11-22T05:44:49.195Z,6.30
2018-11-22T05:47:19.416Z,6.30
2018-11-22T05:49:49.870Z,6.30
2018-11-22T05:52:20.630Z,6.30
2018-11-22T05:54:51.295Z,6.30
2018-11-22T05:57:21.251Z,6.30
2018-11-22T05:59:51.080Z,6.20
2018-11-22T06:02:21.091Z,6.20
2018-11-22T06:04:51.584Z,6.20
2018-11-22T06:07:21.756Z,6.30
2018-11-22T06:09:51.885Z,6.30
2018-11-22T06:12:22.050Z,6.30
2018-11-22T06:14:51.765Z,6.30
2018-11-22T06:17:22.381Z,6.30
2018-11-22T06:19:52.755Z,6.20
2018-11-22T06:22:22.475Z,6.30
2018-11-22T06:24:53.224Z,6.20
2018-11-22T06:27:23.815Z,6.30
2018-11-22T06:29:54.325Z,6.30
2018-11-22T06:32:24.915Z,6.30
2018-11-22T06:34:54.950Z,6.20
2018-11-22T06:37:24.845Z,6.20
2018-11-22T06:39:55.499Z,6.30
2018-11-22T06:42:25.740Z,6.30
2018-11-22T06:44:56.286Z,6.30
2018-11-22T06:47:26.190Z,6.30
2018-11-22T06:50:06.450Z,6.30
2018-11-22T06:52:36.925Z,6.30
2018-11-22T06:55:08.000Z,6.30
2018-11-22T06:57:38.599Z,6.40
2018-11-22T07:00:15.096Z,6.40
2018-11-22T07:02:44.534Z,6.50
2018-11-22T07:05:15.050Z,6.50
2018-11-22T07:07:45.499Z,6.50
2018-11-22T07:10:16.240Z,6.50
2018-11-22T07:12:46.221Z,6.50
2018-11-22T07:15:17.359Z,6.50
2018-11-22T07:17:47.879Z,6.50
2018-11-22T07:20:19.649Z,6.50
2018-11-22T07:22:51.061Z,6.60
2018-11-22T07:25:22.640Z,6.60
2018-11-22T07:27:52.829Z,6.70
2018-11-22T07:30:42.423Z,6.70
2018-11-22T07:33:11.235Z,6.80
2018-11-22T07:35:41.490Z,6.80
2018-11-22T07:38:11.880Z,6.90
2018-11-22T07:40:42.569Z,6.90
2018-11-22T07:43:12.455Z,6.90
2018-11-22T07:45:43.729Z,6.90
2018-11-22T07:48:14.782Z,6.90
2018-11-22T07:50:45.530Z,7.00
2018-11-22T07:53:15.314Z,7.00
2018-11-22T07:55:46.529Z,7.10
2018-11-22T07:58:16.754Z,7.20
2018-11-22T08:00:47.969Z,7.20
2018-11-22T08:03:17.304Z,7.30
2018-11-22T08:05:48.061Z,7.30
2018-11-22T08:08:18.235Z,7.30
2018-11-22T08:10:48.320Z,7.30
2018-11-22T08:13:18.375Z,7.30
2018-11-22T08:15:48.942Z,7.30
2018-11-22T08:18:19.355Z,7.40
2018-11-22T08:20:49.019Z,7.40
2018-11-22T08:23:19.494Z,7.50
2018-11-22T08:25:48.874Z,7.50
2018-11-22T08:28:18.900Z,7.50
2018-11-22T08:30:49.741Z,7.50
2018-11-22T08:33:20.400Z,7.60
2018-11-22T08:35:50.465Z,7.60
2018-11-22T08:38:20.760Z,7.60
2018-11-22T08:40:50.534Z,7.60
2018-11-22T08:43:20.860Z,7.60
2018-11-22T08:45:51.224Z,7.60
2018-11-22T08:48:20.925Z,7.60
2018-11-22T08:50:51.065Z,7.50
2018-11-22T08:53:21.305Z,7.60
2018-11-22T08:55:51.240Z,7.70
2018-11-22T08:58:21.200Z,7.70
2018-11-22T09:00:51.036Z,7.70
2018-11-22T09:03:20.834Z,7.70
2018-11-22T09:05:50.898Z,7.70
2018-11-22T09:08:20.952Z,7.70
2018-11-22T09:10:50.714Z,7.70
2018-11-22T09:13:21.514Z,7.80
2018-11-22T09:15:52.164Z,7.90
2018-11-22T09:18:23.154Z,7.90
2018-11-22T09:20:53.982Z,7.80
2018-11-22T09:23:25.699Z,7.80
2018-11-22T09:25:56.009Z,7.80
2018-11-22T09:28:27.371Z,7.90
2018-11-22T09:30:57.259Z,7.90
2018-11-22T09:33:37.564Z,7.90
2018-11-22T09:36:07.548Z,8.00
2018-11-22T09:38:37.077Z,8.10
2018-11-22T09:41:08.337Z,8.20
2018-11-22T09:43:38.557Z,8.20
2018-11-22T09:46:08.438Z,8.10
2018-11-22T09:48:38.873Z,8.20
2018-11-22T09:51:08.989Z,8.20
2018-11-22T09:53:39.608Z,8.20
2018-11-22T09:56:10.368Z,8.30
2018-11-22T09:58:40.938Z,8.30
2018-11-22T10:01:11.637Z,8.30
2018-11-22T10:03:42.187Z,8.30
2018-11-22T10:06:12.787Z,8.40
2018-11-22T10:08:43.024Z,8.30
2018-11-22T10:11:13.477Z,8.30
2018-11-22T10:13:44.207Z,8.40
2018-11-22T10:16:14.718Z,8.50
2018-11-22T10:18:45.069Z,8.60
2018-11-22T10:21:15.292Z,8.60
2018-11-22T10:23:45.614Z,8.60
2018-11-22T10:26:15.998Z,8.60
2018-11-22T10:28:46.752Z,8.70
2018-11-22T10:31:17.627Z,8.60
2018-11-22T10:33:47.723Z,8.70
2018-11-22T10:36:18.438Z,8.70
2018-11-22T10:38:48.197Z,8.80
2018-11-22T10:41:18.162Z,8.80
2018-11-22T10:43:48.864Z,8.70
2018-11-22T10:46:20.085Z,8.70
2018-11-22T10:48:50.589Z,8.70
2018-11-22T10:51:21.512Z,8.70
2018-11-22T10:53:52.801Z,8.90
2018-11-22T10:56:23.139Z,8.90
2018-11-22T10:58:53.544Z,9.10
2018-11-22T11:01:41.034Z,9.20
2018-11-22T11:04:27.909Z,9.10
2018-11-22T11:07:16.888Z,9.20
2018-11-22T11:09:47.369Z,9.20
2018-11-22T11:12:17.549Z,9.40
2018-11-22T11:14:47.414Z,9.30
2018-11-22T11:17:17.394Z,9.50
2018-11-22T11:19:47.385Z,9.50
2018-11-22T11:22:17.640Z,9.50
2018-11-22T11:24:47.865Z,9.70
2018-11-22T11:27:17.994Z,9.70
2018-11-22T11:29:48.069Z,9.90
2018-11-22T11:32:18.307Z,10.20
2018-11-22T11:34:48.824Z,10.00
2018-11-22T11:37:19.018Z,10.40
2018-11-22T11:39:49.099Z,10.60
2018-11-22T11:42:19.819Z,10.50
2018-11-22T11:44:50.224Z,10.20
2018-11-22T11:47:21.045Z,10.10
2018-11-22T11:49:52.142Z,10.10
2018-11-22T11:52:22.304Z,10.40
2018-11-22T11:54:53.184Z,10.30
2018-11-22T11:57:23.829Z,10.10
2018-11-22T11:59:53.499Z,10.10
2018-11-22T12:02:24.084Z,9.90
2018-11-22T12:04:53.949Z,10.10
2018-11-22T12:07:24.260Z,10.10
2018-11-22T12:09:56.293Z,10.30
2018-11-22T12:12:26.380Z,10.30
2018-11-22T12:14:56.270Z,10.70
2018-11-22T12:17:26.329Z,10.60
2018-11-22T12:19:57.034Z,10.70
2018-11-22T12:22:27.410Z,11.00
2018-11-22T12:24:58.050Z,11.20
2018-11-22T12:27:28.085Z,11.40
2018-11-22T12:29:57.832Z,11.80
2018-11-22T12:32:35.435Z,11.50
2018-11-22T12:35:33.305Z,11.40
2018-11-22T12:38:21.135Z,11.30
2018-11-22T12:40:51.395Z,11.50
2018-11-22T12:43:21.275Z,11.80
2018-11-22T12:45:52.111Z,11.90
2018-11-22T12:48:22.974Z,11.80
2018-11-22T12:50:52.745Z,12.20
2018-11-22T12:53:23.289Z,12.90
2018-11-22T12:55:53.215Z,13.30
2018-11-22T12:58:23.840Z,13.70
2018-11-22T13:00:54.130Z,13.70
2018-11-22T13:03:24.295Z,13.40
2018-11-22T13:05:55.434Z,12.70
2018-11-22T13:08:25.600Z,12.90
2018-11-22T13:10:56.197Z,13.00
2018-11-22T13:13:26.340Z,13.10
2018-11-22T13:15:57.225Z,13.20
2018-11-22T13:18:27.899Z,13.50
2018-11-22T13:20:57.945Z,13.80
2018-11-22T13:23:28.515Z,14.00
2018-11-22T13:25:59.185Z,14.30
2018-11-22T13:28:29.376Z,14.60
2018-11-22T13:30:59.443Z,14.90
2018-11-22T13:33:29.635Z,14.80
2018-11-22T13:36:01.046Z,14.80
2018-11-22T13:38:33.790Z,14.40
2018-11-22T13:41:04.541Z,13.30
2018-11-22T13:43:34.660Z,12.90
2018-11-22T13:46:05.427Z,13.30
2018-11-22T13:48:35.761Z,13.30
2018-11-22T13:51:06.120Z,13.30
2018-11-22T13:53:36.516Z,13.30
2018-11-22T13:56:06.796Z,13.20
2018-11-22T13:58:37.300Z,13.00
2018-11-22T14:01:07.335Z,13.10
2018-11-22T14:03:37.046Z,13.00
2018-11-22T14:06:06.859Z,12.80
2018-11-22T14:08:36.640Z,12.70
2018-11-22T14:11:13.535Z,12.80
2018-11-22T14:13:37.521Z,12.70
2018-11-22T14:16:07.553Z,12.50
2018-11-22T14:18:37.280Z,12.50
2018-11-22T14:21:07.386Z,12.30
2018-11-22T14:23:37.730Z,12.20
2018-11-22T14:26:07.896Z,12.10
2018-11-22T14:28:38.245Z,11.90
2018-11-22T14:31:09.761Z,11.80
2018-11-22T14:33:47.032Z,11.70
2018-11-22T14:36:18.041Z,11.80
2018-11-22T14:38:47.971Z,11.70
2018-11-22T14:41:18.486Z,11.40
2018-11-22T14:43:48.947Z,11.30
2018-11-22T14:46:20.646Z,11.20
2018-11-22T14:48:50.925Z,11.10
2018-11-22T14:51:37.138Z,10.70
2018-11-22T14:54:07.980Z,10.60
2018-11-22T14:56:38.677Z,10.50
2018-11-22T14:59:08.516Z,10.50
2018-11-22T15:01:38.857Z,10.50
2018-11-22T15:04:09.326Z,10.40
2018-11-22T15:06:39.671Z,10.40
2018-11-22T15:09:11.706Z,10.30
2018-11-22T15:11:44.175Z,10.30
2018-11-22T15:14:14.665Z,10.20
2018-11-22T15:16:48.165Z,10.20
2018-11-22T15:19:17.956Z,10.20
2018-11-22T15:21:49.381Z,10.20
2018-11-22T15:24:20.356Z,10.20
2018-11-22T15:26:50.456Z,10.30
2018-11-22T15:29:20.718Z,10.20
2018-11-22T15:31:51.246Z,10.10
2018-11-22T15:34:20.586Z,10.10
2018-11-22T15:36:50.587Z,10.00
2018-11-22T15:39:20.555Z,10.00
2018-11-22T15:41:50.861Z,10.00
2018-11-22T15:44:21.140Z,10.00
2018-11-22T15:46:51.166Z,9.90
2018-11-22T15:49:21.315Z,9.90
2018-11-22T15:51:52.393Z,9.80
2018-11-22T15:54:22.450Z,9.80
2018-11-22T15:56:52.976Z,9.80
2018-11-22T15:59:23.185Z,9.80
2018-11-22T16:01:53.565Z,9.80
2018-11-22T16:04:23.840Z,9.70
2018-11-22T16:06:54.545Z,9.70
2018-11-22T16:09:25.199Z,9.60
2018-11-22T16:11:55.331Z,9.60
2018-11-22T16:14:25.286Z,9.60
2018-11-22T16:16:55.765Z,9.50
2018-11-22T16:19:25.640Z,9.50
2018-11-22T16:21:55.955Z,9.50
2018-11-22T16:24:26.735Z,9.50
2018-11-22T16:26:57.550Z,9.50
2018-11-22T16:29:28.230Z,9.50
2018-11-22T16:31:58.940Z,9.50
2018-11-22T16:34:29.830Z,9.50
2018-11-22T16:36:59.825Z,9.50
2018-11-22T16:39:29.755Z,9.40
2018-11-22T16:41:59.869Z,9.40
2018-11-22T16:44:30.400Z,9.40
2018-11-22T16:47:01.180Z,9.40
2018-11-22T16:49:31.051Z,9.40
2018-11-22T16:52:01.002Z,9.40
2018-11-22T16:54:31.320Z,9.40
2018-11-22T16:57:01.595Z,9.40
2018-11-22T16:59:31.545Z,9.30
2018-11-22T17:02:01.820Z,9.30
2018-11-22T17:04:31.935Z,9.30
2018-11-22T17:07:02.474Z,9.30
2018-11-22T17:09:32.704Z,9.30
2018-11-22T17:12:03.085Z,9.30
2018-11-22T17:14:32.879Z,9.20
2018-11-22T17:17:03.320Z,9.20
2018-11-22T17:19:32.819Z,9.20
2018-11-22T17:22:03.419Z,9.20
2018-11-22T17:24:33.569Z,9.20
2018-11-22T17:27:04.584Z,9.20
2018-11-22T17:29:34.979Z,9.20
2018-11-22T17:32:05.580Z,9.20
2018-11-22T17:34:35.219Z,9.20
2018-11-22T17:37:05.556Z,9.20
2018-11-22T17:39:35.714Z,9.10
2018-11-22T17:42:05.964Z,9.10
2018-11-22T17:44:37.004Z,9.10
2018-11-22T17:47:10.121Z,9.10
2018-11-22T17:49:52.398Z,9.10
2018-11-22T17:52:46.189Z,9.10
2018-11-22T17:55:25.794Z,9.20
2018-11-22T17:58:12.514Z,9.10
2018-11-22T18:00:54.019Z,9.20
2018-11-22T18:03:29.997Z,9.10
2018-11-22T18:06:39.639Z,9.00
2018-11-22T18:09:45.089Z,9.10
2018-11-22T18:12:17.969Z,9.10
2018-11-22T18:14:59.754Z,9.20
2018-11-22T18:17:33.049Z,9.10
2018-11-22T18:20:07.387Z,9.20
2018-11-22T18:22:51.094Z,9.00
2018-11-22T18:25:31.908Z,8.90
2018-11-22T18:28:03.484Z,8.90
2018-11-22T18:30:42.529Z,8.80
2018-11-22T18:33:18.954Z,8.80
2018-11-22T18:36:11.970Z,8.80
2018-11-22T18:38:50.269Z,8.80
2018-11-22T18:41:29.554Z,8.90
2018-11-22T18:44:04.488Z,8.80
2018-11-22T18:46:50.046Z,8.80
2018-11-22T18:49:41.879Z,8.80
2018-11-22T18:52:27.180Z,8.80
2018-11-22T18:55:04.406Z,8.80
2018-11-22T18:57:45.669Z,8.80
2018-11-22T19:00:39.759Z,8.80
2018-11-22T19:03:20.622Z,8.80
2018-11-22T19:05:55.687Z,8.80
2018-11-22T19:08:33.484Z,8.90
2018-11-22T19:11:16.915Z,8.80
2018-11-22T19:13:56.234Z,8.70
2018-11-22T19:16:29.464Z,8.70
2018-11-22T19:19:12.649Z,8.60
2018-11-22T19:21:46.544Z,8.70
2018-11-22T19:24:34.819Z,8.70
2018-11-22T19:27:09.688Z,8.70
2018-11-22T19:30:06.861Z,8.70
2018-11-22T19:32:42.874Z,8.80
2018-11-22T19:35:15.689Z,8.80
2018-11-22T19:37:50.794Z,8.80
2018-11-22T19:40:53.714Z,8.70
2018-11-22T19:43:23.534Z,8.70
2018-11-22T19:45:52.986Z,8.70
2018-11-22T19:48:37.944Z,8.70
2018-11-22T19:51:13.719Z,8.70
2018-11-22T19:53:45.539Z,8.60
2018-11-22T19:56:32.559Z,8.50
2018-11-22T19:59:06.644Z,8.50
2018-11-22T20:01:42.679Z,8.50
2018-11-22T20:04:24.004Z,8.60
2018-11-22T20:07:04.255Z,8.50
2018-11-22T20:09:38.779Z,8.60
2018-11-22T20:12:09.659Z,8.60
2018-11-22T20:14:56.214Z,8.60
2018-11-22T20:17:32.760Z,8.60
2018-11-22T20:20:12.294Z,8.60
2018-11-22T20:23:05.315Z,8.60
2018-11-22T20:25:44.959Z,8.60
2018-11-22T20:28:32.919Z,8.60
2018-11-22T20:31:08.500Z,8.60
2018-11-22T20:33:59.839Z,8.60
2018-11-22T20:36:42.994Z,8.70
2018-11-22T20:39:46.479Z,8.60
2018-11-22T20:42:22.339Z,8.70
2018-11-22T20:45:08.616Z,8.70
2018-11-22T20:47:45.260Z,8.60
2018-11-22T20:50:21.409Z,8.60
2018-11-22T20:53:03.070Z,8.60
2018-11-22T20:55:41.829Z,8.70
2018-11-22T20:58:17.504Z,8.60
2018-11-22T21:00:52.280Z,8.60
2018-11-22T21:03:28.889Z,8.60
2018-11-22T21:06:10.789Z,8.40
2018-11-22T21:08:48.768Z,8.40
2018-11-22T21:11:24.490Z,8.50
2018-11-22T21:13:55.114Z,8.50
2018-11-22T21:16:26.274Z,8.50
2018-11-22T21:18:58.419Z,8.60
2018-11-22T21:21:30.865Z,8.60
2018-11-22T21:24:02.451Z,8.50
2018-11-22T21:26:35.454Z,8.50
2018-11-22T21:29:06.200Z,8.50
2018-11-22T21:31:36.302Z,8.50
2018-11-22T21:34:06.764Z,8.50
2018-11-22T21:36:37.320Z,8.50
2018-11-22T21:39:11.044Z,8.50
2018-11-22T21:41:41.744Z,8.50
2018-11-22T21:44:12.285Z,8.60
2018-11-22T21:46:42.564Z,8.50
2018-11-22T21:49:12.519Z,8.50
2018-11-22T21:51:43.405Z,8.50
2018-11-22T21:54:14.247Z,8.50
2018-11-22T21:56:44.669Z,8.50
2018-11-22T21:59:14.541Z,8.40
2018-11-22T22:01:44.800Z,8.40
2018-11-22T22:04:15.612Z,8.20
2018-11-22T22:06:46.049Z,8.10
2018-11-22T22:09:15.729Z,8.20
2018-11-22T22:11:45.915Z,8.10
2018-11-22T22:14:16.489Z,8.10
2018-11-22T22:16:46.574Z,8.10
2018-11-22T22:19:17.041Z,8.20
2018-11-22T22:21:47.320Z,8.20
2018-11-22T22:24:17.642Z,8.10
2018-11-22T22:26:48.170Z,8.00
2018-11-22T22:29:18.635Z,8.00
2018-11-22T22:31:49.050Z,8.10
2018-11-22T22:34:19.179Z,8.10
2018-11-22T22:36:49.554Z,8.20
2018-11-22T22:39:19.749Z,8.10
2018-11-22T22:41:49.412Z,8.20
2018-11-22T22:44:19.014Z,8.20
2018-11-22T22:46:49.814Z,8.20
2018-11-22T22:49:19.832Z,8.30
2018-11-22T22:51:49.572Z,8.30
2018-11-22T22:54:20.704Z,8.20
2018-11-22T22:56:50.604Z,8.20
2018-11-22T22:59:20.595Z,8.20
2018-11-22T23:01:50.689Z,8.20
2018-11-22T23:04:21.350Z,8.30
2018-11-22T23:06:51.609Z,8.30
2018-11-22T23:09:22.010Z,8.30
2018-11-22T23:11:52.184Z,8.30
2018-11-22T23:14:22.574Z,8.40
2018-11-22T23:16:52.389Z,8.40
2018-11-22T23:19:22.266Z,8.40
2018-11-22T23:21:52.494Z,8.40
2018-11-22T23:24:22.664Z,8.40
2018-11-22T23:26:53.309Z,8.40
2018-11-22T23:29:22.985Z,8.40
2018-11-22T23:31:53.048Z,8.40
2018-11-22T23:34:23.135Z,8.30
2018-11-22T23:36:53.469Z,8.10
2018-11-22T23:39:24.254Z,8.00
2018-11-22T23:41:54.115Z,8.00
2018-11-22T23:44:24.745Z,8.00
2018-11-22T23:46:55.115Z,8.10
2018-11-22T23:49:25.504Z,8.20
2018-11-22T23:51:55.768Z,8.20
2018-11-22T23:54:26.099Z,8.20
2018-11-22T23:56:56.069Z,8.10
2018-11-22T23:59:26.924Z,8.00
